Time;durP1;ratioP1;P1;durP2;ratioP2;P2;SDS_P1;SDS_P2;PMS_P1;PMS_P2;Temp;Humidity;BMP_temperature;BMP_pressure;BME280_temperature;BME280_humidity;BME280_pressure;Samples;Min_cycle;Max_cycle;Signal;HPM_P1;HPM_P2
2023/01/18 00:00:31;;;;;;;18.33;10.50;;;1.60;99.90;;;;;;4993265;28;20222;-39
2023/01/18 00:02:57;;;;;;;14.80;9.50;;;1.60;99.90;;;;;;4992783;28;20223;-38
2023/01/18 00:05:23;;;;;;;15.73;9.27;;;1.50;99.90;;;;;;4985952;28;20692;-36
2023/01/18 00:07:51;;;;;;;14.63;8.87;;;1.50;99.90;;;;;;5004646;28;20362;-38
2023/01/18 00:10:17;;;;;;;17.73;11.27;;;1.50;99.90;;;;;;5009015;28;20214;-36
2023/01/18 00:12:43;;;;;;;18.20;11.30;;;1.40;99.90;;;;;;5008674;28;20187;-38
2023/01/18 00:15:09;;;;;;;19.70;11.87;;;1.40;99.90;;;;;;4975399;28;20187;-41
2023/01/18 00:17:46;;;;;;;19.30;11.30;;;1.40;99.90;;;;;;5005561;28;20684;-41
2023/01/18 00:20:15;;;;;;;19.13;11.23;;;1.40;99.90;;;;;;5004912;28;20210;-38
2023/01/18 00:22:42;;;;;;;25.27;14.37;;;1.40;99.90;;;;;;4991773;28;20175;-37
2023/01/18 00:25:09;;;;;;;23.90;14.17;;;1.40;99.90;;;;;;4992883;28;20187;-42
2023/01/18 00:27:43;;;;;;;21.83;13.13;;;1.40;99.90;;;;;;5008938;28;20175;-40
2023/01/18 00:30:09;;;;;;;24.23;14.53;;;1.40;99.90;;;;;;5008151;28;20234;-38
2023/01/18 00:32:35;;;;;;;23.47;13.57;;;1.40;99.90;;;;;;4992509;28;20179;-41
2023/01/18 00:35:06;;;;;;;21.37;13.57;;;1.40;99.90;;;;;;4989946;28;20703;-41
2023/01/18 00:37:35;;;;;;;22.10;13.23;;;1.40;99.90;;;;;;4975540;28;20183;-41
2023/01/18 00:40:03;;;;;;;21.10;13.13;;;1.50;99.90;;;;;;4975835;28;20282;-35
2023/01/18 00:45:13;;;;;;;21.27;13.37;;;1.50;99.90;;;;;;5007837;28;20179;-41
2023/01/18 00:47:39;;;;;;;23.87;13.77;;;1.50;99.90;;;;;;4991991;28;20710;-41
2023/01/18 00:50:06;;;;;;;21.13;13.10;;;1.40;99.90;;;;;;4991435;28;20208;-39
2023/01/18 00:52:33;;;;;;;20.17;12.47;;;1.50;99.90;;;;;;4993335;28;20249;-41
2023/01/18 00:55:00;;;;;;;24.03;14.63;;;1.40;99.90;;;;;;4988190;28;20189;-41
2023/01/18 00:57:26;;;;;;;20.43;13.10;;;1.40;99.90;;;;;;5003936;28;20278;-41
2023/01/18 00:59:51;;;;;;;23.20;13.50;;;1.50;99.90;;;;;;5007853;28;20354;-39
2023/01/18 01:02:17;;;;;;;22.67;13.97;;;1.50;99.90;;;;;;5007719;28;20188;-41
2023/01/18 01:07:27;;;;;;;27.13;15.27;;;1.50;99.90;;;;;;4991213;28;20210;-38
2023/01/18 01:09:56;;;;;;;23.90;14.37;;;1.50;99.90;;;;;;4991327;28;20267;-41
2023/01/18 01:26:09;;;;;;;23.83;14.40;;;1.50;99.90;;;;;;5007633;28;20239;-41
2023/01/18 01:28:42;;;;;;;23.97;14.40;;;1.50;99.90;;;;;;4992699;28;20218;-41
2023/01/18 01:31:10;;;;;;;20.97;13.10;;;1.60;99.90;;;;;;4974451;28;20261;-40
2023/01/18 01:33:36;;;;;;;21.20;13.60;;;1.60;99.90;;;;;;4991038;28;20260;-42
2023/01/18 01:36:05;;;;;;;24.67;13.97;;;1.60;99.90;;;;;;5003889;28;20255;-40
2023/01/18 01:38:31;;;;;;;20.90;12.80;;;1.60;99.90;;;;;;5003785;28;20188;-42
2023/01/18 01:40:59;;;;;;;22.43;14.40;;;1.60;99.90;;;;;;4986652;28;20203;-40
2023/01/18 01:43:37;;;;;;;20.13;12.87;;;1.60;99.90;;;;;;4992506;28;20179;-41
2023/01/18 01:46:03;;;;;;;20.73;13.50;;;1.50;99.90;;;;;;4992216;28;20183;-41
2023/01/18 01:48:29;;;;;;;21.80;13.13;;;1.50;99.90;;;;;;4974505;28;20214;-41
2023/01/18 01:50:55;;;;;;;20.43;12.23;;;1.50;99.90;;;;;;4991902;28;20223;-42
2023/01/18 01:53:21;;;;;;;21.10;12.53;;;1.50;99.90;;;;;;4990426;28;20258;-41
2023/01/18 01:55:47;;;;;;;23.00;13.63;;;1.50;99.90;;;;;;4992173;28;20179;-40
2023/01/18 01:58:21;;;;;;;21.93;12.40;;;1.50;99.90;;;;;;4991505;28;20194;-38
2023/01/18 02:00:47;;;;;;;25.40;15.00;;;1.40;99.90;;;;;;4991618;28;20200;-40
2023/01/18 02:03:18;;;;;;;27.27;15.90;;;1.40;99.90;;;;;;4991902;28;20184;-41
2023/01/18 02:05:51;;;;;;;25.30;14.57;;;1.50;99.90;;;;;;4989057;28;20180;-40
2023/01/18 02:08:21;;;;;;;21.83;13.70;;;1.50;99.90;;;;;;4984867;28;20207;-41
2023/01/18 02:10:47;;;;;;;23.13;13.70;;;1.40;99.90;;;;;;4986246;28;20203;-41
2023/01/18 02:13:14;;;;;;;19.23;13.03;;;1.40;99.90;;;;;;4987737;28;20212;-41
2023/01/18 02:15:47;;;;;;;18.83;12.43;;;1.50;99.90;;;;;;5004889;28;20183;-39
2023/01/18 02:18:13;;;;;;;20.23;12.27;;;1.50;99.90;;;;;;5004675;28;20183;-42
2023/01/18 02:21:10;;;;;;;23.07;13.60;;;1.40;99.90;;;;;;5004044;28;20215;-40
2023/01/18 02:23:48;;;;;;;21.87;13.17;;;1.40;99.90;;;;;;4981837;28;20187;-38
2023/01/18 02:26:52;;;;;;;20.00;12.77;;;1.40;99.90;;;;;;5006875;28;20277;-41
2023/01/18 02:29:21;;;;;;;21.60;13.07;;;1.30;99.90;;;;;;4967034;28;20228;-40
2023/01/18 02:31:49;;;;;;;21.93;12.77;;;1.30;99.90;;;;;;4996994;28;20187;-38
2023/01/18 02:34:47;;;;;;;24.37;14.10;;;1.30;99.90;;;;;;4982327;28;20212;-39
2023/01/18 02:37:37;;;;;;;20.13;13.07;;;1.30;99.90;;;;;;4985962;28;20192;-39
2023/01/18 02:40:41;;;;;;;23.80;12.97;;;1.40;99.90;;;;;;4990811;28;20211;-41
2023/01/18 02:46:38;;;;;;;22.40;13.90;;;1.30;99.90;;;;;;5005552;28;20195;-35
2023/01/18 02:48:45;;;;;;;22.13;12.97;;;1.30;99.90;;;;;;4987955;28;20200;-38
2023/01/18 02:51:11;;;;;;;26.40;13.53;;;1.40;99.90;;;;;;4990700;28;20210;-37
2023/01/18 02:53:43;;;;;;;20.90;13.07;;;1.30;99.90;;;;;;4991610;28;20271;-39
2023/01/18 02:56:15;;;;;;;21.47;12.93;;;1.40;99.90;;;;;;4991330;28;20187;-40
2023/01/18 02:59:16;;;;;;;23.70;14.00;;;1.40;99.90;;;;;;4989421;28;20189;-41
2023/01/18 03:01:55;;;;;;;20.70;12.73;;;1.40;99.90;;;;;;4987737;28;20195;-40
2023/01/18 03:04:27;;;;;;;20.83;13.17;;;1.40;99.90;;;;;;5003118;28;20173;-38
2023/01/18 03:07:10;;;;;;;21.60;13.87;;;1.40;99.90;;;;;;4989305;28;20202;-41
2023/01/18 03:09:36;;;;;;;24.67;13.27;;;1.40;99.90;;;;;;4973368;28;20200;-37
2023/01/18 03:12:11;;;;;;;26.10;15.13;;;1.40;99.90;;;;;;4991238;28;20183;-39
2023/01/18 03:15:03;;;;;;;24.57;13.83;;;1.40;99.90;;;;;;4973472;28;20187;-38
2023/01/18 03:18:07;;;;;;;23.30;13.40;;;1.40;99.90;;;;;;4991266;28;20184;-38
2023/01/18 03:20:38;;;;;;;23.57;13.83;;;1.40;99.90;;;;;;4971677;28;20211;-38
2023/01/18 03:25:56;;;;;;;22.10;13.43;;;1.40;99.90;;;;;;5006222;28;20197;-35
2023/01/18 03:34:55;;;;;;;21.87;13.43;;;1.40;99.90;;;;;;4984364;28;20199;-35
2023/01/18 03:37:28;;;;;;;20.13;13.63;;;1.50;99.90;;;;;;5008972;28;20198;-40
2023/01/18 03:40:09;;;;;;;21.47;13.50;;;1.50;99.90;;;;;;4989813;28;20223;-37
2023/01/18 03:42:42;;;;;;;21.80;12.73;;;1.50;99.90;;;;;;4988285;28;20195;-37
2023/01/18 03:45:33;;;;;;;20.30;13.80;;;1.50;99.90;;;;;;4994567;28;20195;-37
2023/01/18 03:48:00;;;;;;;21.27;12.90;;;1.50;99.90;;;;;;4976582;28;20207;-38
2023/01/18 03:50:41;;;;;;;20.17;12.93;;;1.50;99.90;;;;;;4994058;28;20208;-40
2023/01/18 03:53:12;;;;;;;23.10;13.80;;;1.40;99.90;;;;;;4993052;28;20223;-35
2023/01/18 03:55:47;;;;;;;23.27;13.60;;;1.40;99.90;;;;;;4976514;28;20259;-40
2023/01/18 03:58:19;;;;;;;21.07;12.73;;;1.40;99.90;;;;;;4993085;28;20193;-37
2023/01/18 04:00:45;;;;;;;20.10;12.80;;;1.40;99.90;;;;;;4993790;28;20218;-38
2023/01/18 04:03:11;;;;;;;21.37;13.33;;;1.40;99.90;;;;;;5008569;28;20182;-39
2023/01/18 04:05:37;;;;;;;19.67;12.20;;;1.40;99.90;;;;;;4981197;28;20183;-39
2023/01/18 04:08:03;;;;;;;20.43;12.07;;;1.40;99.90;;;;;;4976044;28;20184;-36
2023/01/18 04:10:29;;;;;;;21.57;13.23;;;1.40;99.90;;;;;;4992573;28;20214;-37
2023/01/18 04:12:55;;;;;;;21.20;13.43;;;1.40;99.90;;;;;;4992502;28;20202;-41
2023/01/18 04:15:20;;;;;;;22.10;14.03;;;1.40;99.90;;;;;;4993353;28;20194;-40
2023/01/18 04:17:51;;;;;;;22.17;13.17;;;1.40;99.90;;;;;;4992607;28;20192;-41
2023/01/18 04:20:17;;;;;;;21.83;13.63;;;1.40;99.90;;;;;;4992358;28;20220;-41
2023/01/18 04:22:43;;;;;;;23.50;13.93;;;1.40;99.90;;;;;;4992367;28;20190;-38
2023/01/18 04:25:09;;;;;;;24.03;14.33;;;1.30;99.90;;;;;;4993509;28;20180;-35
2023/01/18 04:27:35;;;;;;;25.37;14.23;;;1.40;99.90;;;;;;4976325;28;20176;-36
2023/01/18 04:30:00;;;;;;;24.23;14.20;;;1.40;99.90;;;;;;4993422;28;20233;-37
2023/01/18 04:32:27;;;;;;;25.97;14.03;;;1.40;99.90;;;;;;4993141;28;20269;-40
2023/01/18 04:34:53;;;;;;;20.37;13.13;;;1.40;99.90;;;;;;4984161;28;20176;-38
2023/01/18 04:37:19;;;;;;;22.73;13.27;;;1.40;99.90;;;;;;5003173;28;20176;-37
2023/01/18 04:39:46;;;;;;;18.67;12.17;;;1.40;99.90;;;;;;4987961;28;20239;-39
2023/01/18 04:42:12;;;;;;;16.17;10.60;;;1.40;99.90;;;;;;5009094;28;20184;-37
2023/01/18 04:44:38;;;;;;;14.60;10.37;;;1.30;99.90;;;;;;4992130;28;20187;-40
2023/01/18 04:47:04;;;;;;;15.30;10.10;;;1.40;99.90;;;;;;5005285;28;20221;-40
2023/01/18 04:49:29;;;;;;;19.63;11.93;;;1.40;99.90;;;;;;4974220;28;20204;-41
2023/01/18 04:51:55;;;;;;;17.93;11.53;;;1.40;99.90;;;;;;4974016;28;20191;-41
2023/01/18 04:54:21;;;;;;;15.20;10.97;;;1.40;99.90;;;;;;4973964;28;20188;-41
2023/01/18 04:56:47;;;;;;;16.43;10.83;;;1.40;99.90;;;;;;4975473;28;20195;-42
2023/01/18 04:59:14;;;;;;;12.93;9.70;;;1.40;99.90;;;;;;4991549;28;20212;-41
2023/01/18 05:01:40;;;;;;;13.03;9.30;;;1.40;99.90;;;;;;4991635;28;20179;-37
2023/01/18 05:04:06;;;;;;;11.53;8.30;;;1.50;99.90;;;;;;4993727;28;20184;-37
2023/01/18 05:06:32;;;;;;;11.23;7.67;;;1.40;99.90;;;;;;4985108;28;20227;-35
2023/01/18 05:08:58;;;;;;;12.70;8.50;;;1.40;99.90;;;;;;4991670;28;20206;-37
2023/01/18 05:11:24;;;;;;;18.10;10.40;;;1.40;99.90;;;;;;4991879;28;20279;-37
2023/01/18 05:13:49;;;;;;;17.30;9.37;;;1.50;99.90;;;;;;4992823;28;20203;-35
2023/01/18 05:16:18;;;;;;;7.93;6.80;;;1.40;99.90;;;;;;4992906;28;20183;-38
2023/01/18 05:18:45;;;;;;;8.87;6.60;;;1.50;99.90;;;;;;5007297;28;20195;-35
2023/01/18 05:21:12;;;;;;;9.10;6.87;;;1.30;99.90;;;;;;4992983;28;20242;-39
2023/01/18 05:23:41;;;;;;;10.53;7.77;;;1.30;99.90;;;;;;5004887;28;20191;-40
2023/01/18 05:26:13;;;;;;;8.87;7.10;;;1.40;99.90;;;;;;4988400;28;20188;-41
2023/01/18 05:28:40;;;;;;;9.23;6.70;;;1.40;99.90;;;;;;5007318;28;20238;-41
2023/01/18 05:31:06;;;;;;;9.20;6.90;;;1.30;99.90;;;;;;4974123;28;20199;-41
2023/01/18 05:33:31;;;;;;;8.63;7.03;;;1.40;99.90;;;;;;4990627;28;20184;-42
2023/01/18 05:35:57;;;;;;;7.60;6.10;;;1.40;99.90;;;;;;5006044;28;20176;-41
2023/01/18 05:38:23;;;;;;;6.60;5.57;;;1.30;99.90;;;;;;4996072;28;20262;-41
2023/01/18 05:40:53;;;;;;;11.37;7.60;;;1.30;99.90;;;;;;5007238;28;20206;-41
2023/01/18 05:43:21;;;;;;;7.90;6.17;;;1.30;99.90;;;;;;5007069;28;20175;-41
2023/01/18 05:45:48;;;;;;;12.13;7.60;;;1.30;99.90;;;;;;4986196;28;20546;-41
2023/01/18 05:48:14;;;;;;;12.60;8.30;;;1.30;99.90;;;;;;5003276;28;20184;-42
2023/01/18 05:50:44;;;;;;;39.13;19.90;;;1.30;99.90;;;;;;4992765;28;20287;-41
2023/01/18 05:53:15;;;;;;;15.33;8.50;;;1.30;99.90;;;;;;4990556;28;20187;-42
2023/01/18 05:55:41;;;;;;;8.07;5.67;;;1.30;99.90;;;;;;4999144;28;20319;-41
2023/01/18 05:58:08;;;;;;;7.17;5.27;;;1.30;99.90;;;;;;4995940;28;20236;-41
2023/01/18 06:00:34;;;;;;;7.70;5.60;;;1.20;99.90;;;;;;4996812;28;20220;-41
2023/01/18 06:03:00;;;;;;;6.83;5.40;;;1.30;99.90;;;;;;4986153;28;20539;-41
2023/01/18 06:05:27;;;;;;;7.10;5.27;;;1.30;99.90;;;;;;4987933;28;20206;-41
2023/01/18 06:07:53;;;;;;;6.83;5.50;;;1.30;99.90;;;;;;5007082;28;20652;-40
2023/01/18 06:10:19;;;;;;;7.50;5.30;;;1.30;99.90;;;;;;5007316;28;20203;-41
2023/01/18 06:12:45;;;;;;;4.83;4.00;;;1.30;99.90;;;;;;5008065;28;20200;-41
2023/01/18 06:15:12;;;;;;;5.80;4.70;;;1.30;99.90;;;;;;4991334;28;20214;-39
2023/01/18 06:17:38;;;;;;;4.53;3.87;;;1.20;99.90;;;;;;5005979;28;20202;-35
2023/01/18 06:20:05;;;;;;;5.67;4.13;;;1.20;99.90;;;;;;5005226;28;20218;-37
2023/01/18 06:22:31;;;;;;;4.77;3.67;;;1.20;99.90;;;;;;5006472;28;20187;-35
2023/01/18 06:24:57;;;;;;;4.40;3.90;;;1.10;99.90;;;;;;4990756;28;20175;-37
2023/01/18 06:27:23;;;;;;;5.10;4.60;;;1.00;99.90;;;;;;4990055;28;20316;-40
2023/01/18 06:29:49;;;;;;;4.77;3.73;;;1.10;99.90;;;;;;4991623;28;20215;-42
2023/01/18 06:32:15;;;;;;;4.70;4.17;;;1.10;99.90;;;;;;4989964;28;20188;-41
2023/01/18 06:34:41;;;;;;;6.90;4.60;;;1.00;99.90;;;;;;4989910;28;20198;-38
2023/01/18 06:37:07;;;;;;;10.60;7.53;;;1.00;99.90;;;;;;5003161;28;20191;-37
2023/01/18 06:39:34;;;;;;;12.40;9.10;;;1.00;99.90;;;;;;4986312;28;20215;-41
2023/01/18 06:42:00;;;;;;;10.67;7.50;;;1.10;99.90;;;;;;4999478;28;20326;-41
2023/01/18 06:44:26;;;;;;;7.73;5.30;;;1.10;99.90;;;;;;5000071;28;20263;-41
2023/01/18 06:46:53;;;;;;;4.63;4.07;;;1.10;99.90;;;;;;4982963;28;20219;-39
2023/01/18 06:49:19;;;;;;;6.60;4.83;;;1.10;99.90;;;;;;4987260;28;20215;-38
2023/01/18 06:51:44;;;;;;;5.07;4.33;;;1.10;99.90;;;;;;4977458;28;20190;-36
2023/01/18 06:54:14;;;;;;;5.53;3.90;;;1.10;99.90;;;;;;4980990;28;20183;-39
2023/01/18 06:56:40;;;;;;;5.07;4.40;;;1.10;99.90;;;;;;4975085;28;20275;-40
2023/01/18 06:59:06;;;;;;;6.57;5.47;;;1.10;99.90;;;;;;4975190;28;20338;-41
2023/01/18 07:01:32;;;;;;;7.43;5.17;;;1.10;99.90;;;;;;4981662;28;20198;-41
2023/01/18 07:03:58;;;;;;;12.43;8.77;;;1.10;99.90;;;;;;5002417;28;20184;-38
2023/01/18 07:06:24;;;;;;;11.00;8.53;;;1.10;99.90;;;;;;4985215;28;20246;-36
2023/01/18 07:08:50;;;;;;;11.07;7.13;;;1.10;99.90;;;;;;4997488;28;20198;-38
2023/01/18 07:11:17;;;;;;;8.23;5.67;;;1.10;99.90;;;;;;4990751;28;20175;-40
2023/01/18 07:13:45;;;;;;;6.50;5.20;;;1.10;99.90;;;;;;4994041;28;20184;-42
2023/01/18 07:16:16;;;;;;;7.87;6.43;;;1.10;99.90;;;;;;4981661;28;20187;-40
2023/01/18 07:18:44;;;;;;;8.90;6.50;;;1.20;99.90;;;;;;4992059;28;20176;-42
2023/01/18 07:21:10;;;;;;;8.20;6.23;;;1.20;99.90;;;;;;4975658;28;20200;-41
2023/01/18 07:23:37;;;;;;;7.00;5.60;;;1.20;99.90;;;;;;4990608;28;20188;-41
2023/01/18 07:26:05;;;;;;;7.10;4.90;;;1.10;99.90;;;;;;4975528;28;20183;-43
2023/01/18 07:28:32;;;;;;;7.47;5.97;;;1.10;99.90;;;;;;4975468;28;20194;-41
2023/01/18 07:30:58;;;;;;;9.30;5.63;;;1.10;99.90;;;;;;4975278;28;20215;-41
2023/01/18 07:33:24;;;;;;;7.17;5.43;;;1.20;99.90;;;;;;4983230;28;20191;-42
2023/01/18 07:35:54;;;;;;;5.87;5.07;;;1.20;99.90;;;;;;4985486;28;20191;-41
2023/01/18 07:38:21;;;;;;;6.50;4.40;;;1.30;99.90;;;;;;4994500;28;20278;-38
2023/01/18 07:40:47;;;;;;;8.97;5.90;;;1.30;99.90;;;;;;4992953;28;20214;-41
2023/01/18 07:43:14;;;;;;;8.20;5.50;;;1.30;99.90;;;;;;5009889;28;20183;-41
2023/01/18 07:45:41;;;;;;;8.93;5.40;;;1.30;99.90;;;;;;4993440;28;20263;-41
2023/01/18 07:48:07;;;;;;;9.07;5.23;;;1.30;99.90;;;;;;4993406;28;20258;-42
2023/01/18 07:50:33;;;;;;;6.73;5.10;;;1.40;99.90;;;;;;4992802;28;20239;-41
2023/01/18 07:53:05;;;;;;;5.27;4.70;;;1.30;99.90;;;;;;4994975;28;20188;-41
2023/01/18 07:55:31;;;;;;;5.50;4.80;;;1.30;99.90;;;;;;4993371;28;20561;-41
2023/01/18 07:57:58;;;;;;;6.40;5.43;;;1.30;99.90;;;;;;4993172;28;20268;-42
2023/01/18 08:00:25;;;;;;;8.13;5.93;;;1.30;99.90;;;;;;4991739;28;20242;-41
2023/01/18 08:02:51;;;;;;;6.93;5.73;;;1.30;99.90;;;;;;4992991;28;20238;-42
2023/01/18 08:05:22;;;;;;;8.27;5.93;;;1.40;99.90;;;;;;4989443;28;20184;-41
2023/01/18 08:07:49;;;;;;;6.63;5.23;;;1.40;99.90;;;;;;5001554;28;20230;-41
2023/01/18 08:10:16;;;;;;;6.17;4.93;;;1.40;99.90;;;;;;4992970;28;20282;-42
2023/01/18 08:12:42;;;;;;;5.77;4.80;;;1.50;99.90;;;;;;4993477;28;20188;-41
2023/01/18 08:15:08;;;;;;;7.43;5.00;;;1.50;99.90;;;;;;4994207;28;20179;-37
2023/01/18 08:17:35;;;;;;;6.00;5.00;;;1.50;99.90;;;;;;4993769;28;20266;-40
2023/01/18 08:20:01;;;;;;;6.43;4.63;;;1.60;99.90;;;;;;5008034;28;20215;-41
2023/01/18 08:22:28;;;;;;;5.90;4.97;;;1.60;99.90;;;;;;4991836;28;20202;-41
2023/01/18 08:24:54;;;;;;;7.17;5.27;;;1.60;99.90;;;;;;4993115;28;20175;-40
2023/01/18 08:27:21;;;;;;;6.20;5.00;;;1.60;99.90;;;;;;4993109;28;20183;-38
2023/01/18 08:29:48;;;;;;;8.43;4.90;;;1.60;99.90;;;;;;4991698;28;20311;-41
2023/01/18 08:32:14;;;;;;;5.60;4.90;;;1.70;99.90;;;;;;5006481;28;20278;-40
2023/01/18 08:34:41;;;;;;;6.87;4.93;;;1.70;99.90;;;;;;4990477;28;20191;-38
2023/01/18 08:37:07;;;;;;;10.57;4.90;;;1.70;99.90;;;;;;4979772;28;20299;-38
2023/01/18 08:39:35;;;;;;;7.57;5.40;;;1.70;99.90;;;;;;4991324;28;20259;-37
2023/01/18 08:42:01;;;;;;;6.53;4.90;;;1.70;99.90;;;;;;4991830;28;20241;-38
2023/01/18 08:44:28;;;;;;;5.20;4.47;;;1.70;99.90;;;;;;4991264;28;20188;-38
2023/01/18 08:46:54;;;;;;;7.47;4.30;;;1.70;99.90;;;;;;4993442;28;20180;-41
2023/01/18 08:49:20;;;;;;;5.50;4.00;;;1.60;99.90;;;;;;4991390;28;20204;-41
2023/01/18 08:51:46;;;;;;;6.13;4.43;;;1.70;99.90;;;;;;4991387;28;20242;-41
2023/01/18 08:54:12;;;;;;;5.90;4.27;;;1.60;99.90;;;;;;4990739;28;20184;-41
2023/01/18 08:56:38;;;;;;;7.53;4.83;;;1.70;99.90;;;;;;4974931;28;20207;-38
2023/01/18 08:59:07;;;;;;;8.47;5.00;;;1.70;99.90;;;;;;4991180;28;20218;-40
2023/01/18 09:01:33;;;;;;;8.77;5.03;;;1.70;99.90;;;;;;4992798;28;20175;-38
2023/01/18 09:03:59;;;;;;;6.97;5.03;;;1.70;99.90;;;;;;4972186;28;20188;-41
2023/01/18 09:06:30;;;;;;;7.73;4.80;;;1.70;99.90;;;;;;5005094;28;20180;-35
2023/01/18 09:08:56;;;;;;;7.10;5.73;;;1.80;99.90;;;;;;4991348;28;20195;-40
2023/01/18 09:11:22;;;;;;;6.00;4.60;;;1.80;99.90;;;;;;4991922;28;20180;-41
2023/01/18 09:13:53;;;;;;;5.90;4.27;;;1.80;99.90;;;;;;4990737;28;20180;-40
2023/01/18 09:16:20;;;;;;;5.40;4.20;;;1.90;99.90;;;;;;5011397;28;20529;-40
2023/01/18 09:18:46;;;;;;;5.20;4.57;;;2.00;99.90;;;;;;4988604;28;20194;-41
2023/01/18 09:21:12;;;;;;;5.27;3.97;;;2.00;99.90;;;;;;4995042;28;20207;-40
2023/01/18 09:23:39;;;;;;;7.37;4.63;;;2.10;99.90;;;;;;5001649;28;20176;-41
2023/01/18 09:26:17;;;;;;;6.73;4.43;;;2.20;99.90;;;;;;5001059;28;20446;-41
2023/01/18 09:28:46;;;;;;;6.13;4.00;;;2.20;99.90;;;;;;4992170;28;20188;-41
2023/01/18 09:31:12;;;;;;;3.77;3.13;;;2.30;99.90;;;;;;5003565;28;20191;-41
2023/01/18 09:33:38;;;;;;;6.70;3.90;;;2.40;99.90;;;;;;5013021;28;20199;-41
2023/01/18 09:36:08;;;;;;;5.43;3.70;;;2.50;99.90;;;;;;4984071;28;20184;-42
2023/01/18 09:38:35;;;;;;;7.07;4.20;;;2.50;99.90;;;;;;4994339;28;20327;-42
2023/01/18 09:41:04;;;;;;;4.57;3.83;;;2.60;99.90;;;;;;4998056;28;20238;-39
2023/01/18 09:43:41;;;;;;;7.13;3.60;;;2.60;99.90;;;;;;5003033;28;20182;-41
2023/01/18 09:46:27;;;;;;;5.13;3.23;;;2.60;99.90;;;;;;5008058;28;20164;-41
2023/01/18 09:48:56;;;;;;;4.03;3.63;;;2.50;99.90;;;;;;4991319;28;20199;-42
2023/01/18 09:51:42;;;;;;;5.07;3.40;;;2.60;99.90;;;;;;4974515;28;20194;-41
2023/01/18 09:54:50;;;;;;;3.93;3.30;;;2.60;99.90;;;;;;4990298;28;20180;-38
2023/01/18 09:57:43;;;;;;;6.50;3.70;;;2.70;99.90;;;;;;4971889;28;20191;-41
2023/01/18 10:00:30;;;;;;;3.73;3.20;;;2.70;99.90;;;;;;4972661;28;20235;-41
2023/01/18 10:02:59;;;;;;;4.57;3.33;;;2.70;99.90;;;;;;5006808;28;20196;-41
2023/01/18 10:05:35;;;;;;;3.40;3.10;;;2.70;99.90;;;;;;4983299;28;20177;-41
2023/01/18 10:08:13;;;;;;;4.87;3.20;;;2.80;99.90;;;;;;4989767;28;20187;-41
2023/01/18 10:10:50;;;;;;;4.83;3.77;;;2.80;99.90;;;;;;4977787;28;20261;-37
2023/01/18 10:13:53;;;;;;;4.33;3.60;;;2.80;99.90;;;;;;5006757;28;20184;-38
2023/01/18 10:16:19;;;;;;;4.97;4.07;;;2.80;99.90;;;;;;4989562;28;20183;-39
2023/01/18 10:18:48;;;;;;;5.50;3.33;;;2.80;99.90;;;;;;4990347;28;20187;-40
2023/01/18 10:21:26;;;;;;;4.00;3.50;;;2.80;99.90;;;;;;5002941;28;20205;-39
2023/01/18 10:24:02;;;;;;;7.07;3.63;;;2.80;99.90;;;;;;4986060;28;20186;-37
2023/01/18 10:26:30;;;;;;;5.43;3.40;;;2.70;99.90;;;;;;4989263;28;20182;-39
2023/01/18 10:28:58;;;;;;;6.43;3.83;;;2.70;99.90;;;;;;4991364;28;20184;-38
2023/01/18 10:31:58;;;;;;;5.67;4.07;;;2.70;99.90;;;;;;4991710;28;20235;-38
2023/01/18 10:34:31;;;;;;;4.87;3.50;;;2.80;99.90;;;;;;4990606;28;20179;-38
2023/01/18 10:37:22;;;;;;;5.27;3.50;;;2.90;99.90;;;;;;4984609;28;20716;-39
2023/01/18 10:39:56;;;;;;;4.93;3.83;;;2.90;99.90;;;;;;4990446;28;20250;-37
2023/01/18 10:42:28;;;;;;;5.47;3.27;;;2.90;99.90;;;;;;4991567;28;20183;-40
2023/01/18 10:44:54;;;;;;;5.40;3.90;;;2.90;99.90;;;;;;4991642;28;20271;-38
2023/01/18 10:47:20;;;;;;;5.63;4.20;;;2.80;99.90;;;;;;4990175;28;20262;-38
2023/01/18 10:49:49;;;;;;;6.63;4.27;;;2.80;99.90;;;;;;5006130;28;20200;-40
2023/01/18 10:52:26;;;;;;;8.70;5.37;;;2.70;99.90;;;;;;5006352;28;20183;-38
2023/01/18 10:55:01;;;;;;;6.80;4.77;;;2.70;99.90;;;;;;4990031;28;20183;-39
2023/01/18 10:57:34;;;;;;;4.47;4.07;;;2.60;99.90;;;;;;4991496;28;20182;-38
2023/01/18 11:00:00;;;;;;;6.23;3.70;;;2.60;99.90;;;;;;4991298;28;20219;-36
2023/01/18 11:02:32;;;;;;;7.37;4.63;;;2.60;99.90;;;;;;4991823;28;20191;-38
2023/01/18 11:05:14;;;;;;;6.37;3.63;;;2.40;99.90;;;;;;5000059;28;20172;-37
2023/01/18 11:07:40;;;;;;;5.10;3.73;;;2.40;99.90;;;;;;4989322;28;20203;-34
2023/01/18 11:10:26;;;;;;;7.23;5.20;;;2.40;99.90;;;;;;4995040;28;20212;-39
2023/01/18 11:12:53;;;;;;;6.90;4.60;;;2.40;99.90;;;;;;4994375;28;20175;-37
2023/01/18 11:15:22;;;;;;;8.07;4.63;;;2.40;99.90;;;;;;4998608;28;20183;-39
2023/01/18 11:17:56;;;;;;;8.03;4.53;;;2.50;99.90;;;;;;4989853;28;20199;-38
2023/01/18 11:20:33;;;;;;;6.53;3.67;;;2.60;99.90;;;;;;4991126;28;20223;-35
2023/01/18 11:23:04;;;;;;;4.73;3.87;;;2.60;99.90;;;;;;5015896;23;20279;-37
2023/01/18 11:26:11;;;;;;;5.77;4.10;;;2.60;99.90;;;;;;5030555;28;20171;-36
2023/01/18 11:28:58;;;;;;;4.03;3.30;;;2.70;99.90;;;;;;5030545;28;20261;-39
2023/01/18 11:31:27;;;;;;;6.50;4.13;;;2.70;99.90;;;;;;5029668;28;20178;-38
2023/01/18 11:33:57;;;;;;;6.43;4.07;;;2.70;99.90;;;;;;5024419;28;20199;-38
2023/01/18 11:36:38;;;;;;;6.20;4.07;;;2.80;99.90;;;;;;5002567;28;20233;-36
2023/01/18 11:39:29;;;;;;;7.60;4.10;;;2.90;99.90;;;;;;5016666;28;20211;-37
2023/01/18 11:42:29;;;;;;;26.40;12.20;;;2.90;99.90;;;;;;4985789;28;20199;-36
2023/01/18 11:45:00;;;;;;;8.37;6.33;;;2.90;99.90;;;;;;4993307;28;20175;-38
2023/01/18 11:47:36;;;;;;;7.17;5.10;;;2.90;99.90;;;;;;5031232;28;20179;-36
2023/01/18 11:50:14;;;;;;;3.60;2.93;;;2.90;99.90;;;;;;5015653;28;20186;-36
2023/01/18 11:53:03;;;;;;;4.90;3.97;;;2.90;99.90;;;;;;5005886;28;20353;-39
2023/01/18 11:55:37;;;;;;;5.17;3.43;;;2.90;99.90;;;;;;4996898;28;20183;-38
2023/01/18 11:58:15;;;;;;;4.30;3.60;;;2.90;99.90;;;;;;5013927;28;20179;-37
2023/01/18 12:00:57;;;;;;;5.77;3.23;;;3.00;99.90;;;;;;5025588;28;20226;-37
2023/01/18 12:03:40;;;;;;;4.67;3.70;;;2.90;99.90;;;;;;5011380;28;20199;-37
2023/01/18 12:06:21;;;;;;;4.40;3.40;;;3.00;99.90;;;;;;5004758;28;20171;-38
2023/01/18 12:08:53;;;;;;;4.63;3.20;;;3.00;99.90;;;;;;5004232;28;20241;-37
2023/01/18 12:11:39;;;;;;;4.77;3.10;;;3.00;99.90;;;;;;4999383;28;20211;-36
2023/01/18 12:14:21;;;;;;;3.90;3.40;;;3.00;99.90;;;;;;5011704;28;20187;-37
2023/01/18 12:17:06;;;;;;;3.90;3.13;;;3.10;99.90;;;;;;5009289;28;20179;-37
2023/01/18 12:19:52;;;;;;;3.60;3.03;;;3.10;99.90;;;;;;5007906;28;20230;-36
2023/01/18 12:22:39;;;;;;;3.07;2.77;;;3.10;99.90;;;;;;5001014;28;20204;-36
2023/01/18 12:25:34;;;;;;;4.33;2.80;;;3.10;99.90;;;;;;4989401;28;20176;-37
2023/01/18 12:28:44;;;;;;;3.90;2.90;;;3.10;99.90;;;;;;5003333;28;20172;-37
2023/01/18 12:31:19;;;;;;;4.70;3.33;;;3.00;99.90;;;;;;5003249;28;20208;-36
2023/01/18 12:34:14;;;;;;;4.00;2.83;;;3.00;99.90;;;;;;5017152;28;20202;-38
2023/01/18 12:37:12;;;;;;;3.63;3.10;;;3.00;99.90;;;;;;5006706;28;20305;-37
2023/01/18 12:39:56;;;;;;;3.57;2.37;;;3.00;99.90;;;;;;4995970;28;20260;-36
2023/01/18 12:42:37;;;;;;;6.00;4.37;;;2.90;99.90;;;;;;4976479;28;20211;-37
2023/01/18 12:45:06;;;;;;;4.73;4.00;;;2.90;99.90;;;;;;4999892;28;20203;-36
2023/01/18 12:47:34;;;;;;;3.87;3.10;;;2.80;99.90;;;;;;5014012;28;20211;-39
2023/01/18 12:50:06;;;;;;;6.80;3.77;;;2.80;99.90;;;;;;5019726;28;20242;-38
2023/01/18 12:52:38;;;;;;;6.37;3.90;;;2.70;99.90;;;;;;5011036;28;20206;-40
2023/01/18 12:55:06;;;;;;;5.27;4.17;;;2.70;99.90;;;;;;5029869;28;20280;-40
2023/01/18 12:57:34;;;;;;;7.73;5.37;;;2.60;99.90;;;;;;5028724;28;20183;-38
2023/01/18 13:00:05;;;;;;;5.13;4.00;;;2.60;99.90;;;;;;5010068;28;20261;-38
2023/01/18 13:02:38;;;;;;;5.23;3.63;;;2.60;99.90;;;;;;4998146;28;20214;-39
2023/01/18 13:05:49;;;;;;;4.67;2.90;;;2.50;99.90;;;;;;4977900;28;20267;-36
2023/01/18 13:08:38;;;;;;;4.77;3.00;;;2.50;99.90;;;;;;4983170;28;20194;-39
2023/01/18 13:11:40;;;;;;;3.90;3.10;;;2.60;99.90;;;;;;4978795;28;20191;-38
2023/01/18 13:14:18;;;;;;;4.47;3.27;;;2.60;99.90;;;;;;4957141;28;20662;-40
2023/01/18 13:16:55;;;;;;;4.83;3.30;;;2.70;99.90;;;;;;4962151;28;20189;-37
2023/01/18 13:19:28;;;;;;;5.53;3.80;;;2.70;99.90;;;;;;4959684;28;20269;-38
2023/01/18 13:22:12;;;;;;;7.03;3.40;;;2.70;99.90;;;;;;4941560;28;1580831;-38
2023/01/18 13:24:56;;;;;;;5.00;3.30;;;2.60;99.90;;;;;;4994966;28;20285;-39
2023/01/18 13:27:22;;;;;;;6.73;3.73;;;2.70;99.90;;;;;;4958230;28;20191;-38
2023/01/18 13:29:48;;;;;;;6.53;3.43;;;2.70;99.90;;;;;;4998772;28;20202;-38
2023/01/18 13:32:26;;;;;;;4.50;3.30;;;2.70;99.90;;;;;;4977704;28;20765;-41
2023/01/18 13:35:15;;;;;;;3.20;2.90;;;2.70;99.90;;;;;;4994312;28;20261;-38
2023/01/18 13:37:56;;;;;;;3.10;2.80;;;2.70;99.90;;;;;;4974781;28;20195;-37
2023/01/18 13:40:28;;;;;;;4.97;3.33;;;2.60;99.90;;;;;;4994215;28;20285;-38
2023/01/18 13:42:53;;;;;;;6.47;3.07;;;2.60;99.90;;;;;;4996185;28;20349;-38
2023/01/18 13:45:21;;;;;;;4.23;2.83;;;2.60;99.90;;;;;;4991064;28;20194;-38